sensor_id;sensor_type;location;lat;lon;timestamp;P1;durP1;ratioP1;P2;durP2;ratioP2
56073;SDS011;41950;55.840;37.442;2022-12-19T00:00:18;3.40;;;2.10;;
56073;SDS011;41950;55.840;37.442;2022-12-19T00:02:44;6.82;;;4.30;;
56073;SDS011;41950;55.840;37.442;2022-12-19T00:05:09;7.18;;;4.15;;
56073;SDS011;41950;55.840;37.442;2022-12-19T00:07:35;5.75;;;3.88;;
56073;SDS011;41950;55.840;37.442;2022-12-19T00:10:00;6.22;;;3.92;;
56073;SDS011;41950;55.840;37.442;2022-12-19T00:12:28;5.57;;;3.80;;
56073;SDS011;41950;55.840;37.442;2022-12-19T00:14:53;6.38;;;4.25;;
56073;SDS011;41950;55.840;37.442;2022-12-19T00:17:19;5.65;;;3.55;;
56073;SDS011;41950;55.840;37.442;2022-12-19T00:19:44;4.32;;;2.40;;
56073;SDS011;41950;55.840;37.442;2022-12-19T00:22:10;4.03;;;2.63;;
56073;SDS011;41950;55.840;37.442;2022-12-19T00:24:36;5.40;;;3.72;;
56073;SDS011;41950;55.840;37.442;2022-12-19T00:27:01;5.68;;;4.20;;
56073;SDS011;41950;55.840;37.442;2022-12-19T00:29:27;6.32;;;3.92;;
56073;SDS011;41950;55.840;37.442;2022-12-19T00:31:52;6.00;;;3.95;;
56073;SDS011;41950;55.840;37.442;2022-12-19T00:34:18;8.30;;;4.13;;
56073;SDS011;41950;55.840;37.442;2022-12-19T00:36:44;6.15;;;3.97;;
56073;SDS011;41950;55.840;37.442;2022-12-19T00:39:10;6.70;;;4.15;;
56073;SDS011;41950;55.840;37.442;2022-12-19T00:41:36;7.13;;;3.97;;
56073;SDS011;41950;55.840;37.442;2022-12-19T00:44:09;6.30;;;4.30;;
56073;SDS011;41950;55.840;37.442;2022-12-19T00:49:02;6.75;;;3.88;;
56073;SDS011;41950;55.840;37.442;2022-12-19T00:51:30;6.63;;;4.30;;
56073;SDS011;41950;55.840;37.442;2022-12-19T00:53:58;7.30;;;4.28;;
56073;SDS011;41950;55.840;37.442;2022-12-19T00:56:25;3.78;;;2.20;;
56073;SDS011;41950;55.840;37.442;2022-12-19T00:58:53;6.47;;;4.13;;
56073;SDS011;41950;55.840;37.442;2022-12-19T01:01:22;8.15;;;4.10;;
56073;SDS011;41950;55.840;37.442;2022-12-19T01:03:49;7.20;;;4.13;;
56073;SDS011;41950;55.840;37.442;2022-12-19T01:06:15;3.47;;;2.42;;
56073;SDS011;41950;55.840;37.442;2022-12-19T01:08:41;7.55;;;4.38;;
56073;SDS011;41950;55.840;37.442;2022-12-19T01:11:07;7.38;;;4.32;;
56073;SDS011;41950;55.840;37.442;2022-12-19T01:13:33;6.95;;;4.47;;
56073;SDS011;41950;55.840;37.442;2022-12-19T01:16:01;7.80;;;5.13;;
56073;SDS011;41950;55.840;37.442;2022-12-19T01:18:37;7.57;;;4.65;;
56073;SDS011;41950;55.840;37.442;2022-12-19T01:21:05;6.93;;;4.13;;
56073;SDS011;41950;55.840;37.442;2022-12-19T01:23:32;7.00;;;4.13;;
56073;SDS011;41950;55.840;37.442;2022-12-19T01:25:59;7.30;;;4.57;;
56073;SDS011;41950;55.840;37.442;2022-12-19T01:28:25;7.50;;;4.55;;
56073;SDS011;41950;55.840;37.442;2022-12-19T01:30:50;7.38;;;4.22;;
56073;SDS011;41950;55.840;37.442;2022-12-19T01:33:17;7.38;;;5.00;;
56073;SDS011;41950;55.840;37.442;2022-12-19T01:35:45;7.80;;;4.70;;
56073;SDS011;41950;55.840;37.442;2022-12-19T01:38:13;7.20;;;4.70;;
56073;SDS011;41950;55.840;37.442;2022-12-19T01:40:53;5.65;;;3.22;;
56073;SDS011;41950;55.840;37.442;2022-12-19T01:43:21;7.70;;;4.60;;
56073;SDS011;41950;55.840;37.442;2022-12-19T01:46:02;5.82;;;3.90;;
56073;SDS011;41950;55.840;37.442;2022-12-19T01:48:34;7.90;;;4.13;;
56073;SDS011;41950;55.840;37.442;2022-12-19T01:51:04;9.65;;;5.00;;
56073;SDS011;41950;55.840;37.442;2022-12-19T01:53:47;9.30;;;5.25;;
56073;SDS011;41950;55.840;37.442;2022-12-19T01:56:16;7.78;;;4.75;;
56073;SDS011;41950;55.840;37.442;2022-12-19T01:58:49;8.57;;;5.60;;
56073;SDS011;41950;55.840;37.442;2022-12-19T02:01:17;9.32;;;5.50;;
56073;SDS011;41950;55.840;37.442;2022-12-19T02:03:43;9.00;;;5.88;;
56073;SDS011;41950;55.840;37.442;2022-12-19T02:06:09;8.32;;;5.43;;
56073;SDS011;41950;55.840;37.442;2022-12-19T02:08:36;8.50;;;6.07;;
56073;SDS011;41950;55.840;37.442;2022-12-19T02:11:03;9.23;;;5.50;;
56073;SDS011;41950;55.840;37.442;2022-12-19T02:13:29;8.02;;;5.63;;
56073;SDS011;41950;55.840;37.442;2022-12-19T02:18:42;9.48;;;5.95;;
56073;SDS011;41950;55.840;37.442;2022-12-19T02:21:24;5.35;;;2.97;;
56073;SDS011;41950;55.840;37.442;2022-12-19T02:26:54;10.32;;;5.60;;
56073;SDS011;41950;55.840;37.442;2022-12-19T02:43:27;8.80;;;6.03;;
56073;SDS011;41950;55.840;37.442;2022-12-19T02:45:56;7.68;;;5.53;;
56073;SDS011;41950;55.840;37.442;2022-12-19T02:48:23;10.52;;;6.20;;
56073;SDS011;41950;55.840;37.442;2022-12-19T02:50:50;9.65;;;5.07;;
56073;SDS011;41950;55.840;37.442;2022-12-19T02:53:16;8.50;;;5.47;;
56073;SDS011;41950;55.840;37.442;2022-12-19T02:58:30;6.43;;;4.00;;
56073;SDS011;41950;55.840;37.442;2022-12-19T03:01:20;7.55;;;4.25;;
56073;SDS011;41950;55.840;37.442;2022-12-19T03:06:54;9.27;;;4.80;;
56073;SDS011;41950;55.840;37.442;2022-12-19T03:12:10;8.82;;;5.13;;
56073;SDS011;41950;55.840;37.442;2022-12-19T03:14:42;8.35;;;5.45;;
56073;SDS011;41950;55.840;37.442;2022-12-19T03:17:09;9.30;;;5.82;;
56073;SDS011;41950;55.840;37.442;2022-12-19T03:19:35;7.95;;;4.22;;
56073;SDS011;41950;55.840;37.442;2022-12-19T03:22:04;10.10;;;5.93;;
56073;SDS011;41950;55.840;37.442;2022-12-19T03:24:31;8.48;;;5.63;;
56073;SDS011;41950;55.840;37.442;2022-12-19T03:27:00;8.88;;;5.65;;
56073;SDS011;41950;55.840;37.442;2022-12-19T03:29:33;7.20;;;3.97;;
56073;SDS011;41950;55.840;37.442;2022-12-19T03:32:30;7.47;;;4.72;;
56073;SDS011;41950;55.840;37.442;2022-12-19T03:35:09;8.15;;;4.90;;
56073;SDS011;41950;55.840;37.442;2022-12-19T03:37:41;7.13;;;3.85;;
56073;SDS011;41950;55.840;37.442;2022-12-19T03:40:14;7.68;;;4.78;;
56073;SDS011;41950;55.840;37.442;2022-12-19T03:42:44;8.27;;;5.10;;
56073;SDS011;41950;55.840;37.442;2022-12-19T03:48:06;7.53;;;4.88;;
56073;SDS011;41950;55.840;37.442;2022-12-19T03:50:47;8.68;;;5.90;;
56073;SDS011;41950;55.840;37.442;2022-12-19T03:53:33;7.95;;;4.93;;
56073;SDS011;41950;55.840;37.442;2022-12-19T03:56:11;7.72;;;4.80;;
56073;SDS011;41950;55.840;37.442;2022-12-19T03:58:39;4.55;;;2.60;;
56073;SDS011;41950;55.840;37.442;2022-12-19T04:01:09;8.48;;;4.82;;
56073;SDS011;41950;55.840;37.442;2022-12-19T04:03:35;7.97;;;3.50;;
56073;SDS011;41950;55.840;37.442;2022-12-19T04:06:01;7.43;;;4.90;;
56073;SDS011;41950;55.840;37.442;2022-12-19T04:08:28;5.28;;;3.60;;
56073;SDS011;41950;55.840;37.442;2022-12-19T04:11:00;4.40;;;2.78;;
56073;SDS011;41950;55.840;37.442;2022-12-19T04:13:36;6.25;;;4.00;;
56073;SDS011;41950;55.840;37.442;2022-12-19T04:18:33;8.13;;;5.63;;
56073;SDS011;41950;55.840;37.442;2022-12-19T04:27:48;9.85;;;5.30;;
56073;SDS011;41950;55.840;37.442;2022-12-19T04:50:55;9.30;;;5.53;;
56073;SDS011;41950;55.840;37.442;2022-12-19T04:53:33;7.60;;;4.50;;
56073;SDS011;41950;55.840;37.442;2022-12-19T04:56:17;9.68;;;5.15;;
56073;SDS011;41950;55.840;37.442;2022-12-19T04:58:43;11.90;;;6.10;;
56073;SDS011;41950;55.840;37.442;2022-12-19T05:01:08;8.80;;;4.65;;
56073;SDS011;41950;55.840;37.442;2022-12-19T05:03:34;11.82;;;6.22;;
56073;SDS011;41950;55.840;37.442;2022-12-19T05:06:34;10.15;;;6.22;;
56073;SDS011;41950;55.840;37.442;2022-12-19T05:08:55;7.25;;;4.43;;
56073;SDS011;41950;55.840;37.442;2022-12-19T05:11:21;10.75;;;6.50;;
56073;SDS011;41950;55.840;37.442;2022-12-19T05:13:46;8.32;;;5.47;;
56073;SDS011;41950;55.840;37.442;2022-12-19T05:16:14;9.18;;;5.72;;
56073;SDS011;41950;55.840;37.442;2022-12-19T05:18:44;9.40;;;5.15;;
56073;SDS011;41950;55.840;37.442;2022-12-19T05:21:10;5.22;;;3.10;;
56073;SDS011;41950;55.840;37.442;2022-12-19T05:23:36;6.90;;;3.50;;
56073;SDS011;41950;55.840;37.442;2022-12-19T05:26:03;5.57;;;3.42;;
56073;SDS011;41950;55.840;37.442;2022-12-19T05:28:29;6.63;;;3.97;;
56073;SDS011;41950;55.840;37.442;2022-12-19T05:31:06;6.38;;;4.22;;
56073;SDS011;41950;55.840;37.442;2022-12-19T05:33:40;10.05;;;6.75;;
56073;SDS011;41950;55.840;37.442;2022-12-19T05:36:06;9.65;;;6.22;;
56073;SDS011;41950;55.840;37.442;2022-12-19T05:38:33;7.38;;;4.07;;
56073;SDS011;41950;55.840;37.442;2022-12-19T05:41:04;9.23;;;5.68;;
56073;SDS011;41950;55.840;37.442;2022-12-19T05:43:32;8.73;;;5.43;;
56073;SDS011;41950;55.840;37.442;2022-12-19T05:45:58;7.55;;;4.25;;
56073;SDS011;41950;55.840;37.442;2022-12-19T05:48:24;8.32;;;5.53;;
56073;SDS011;41950;55.840;37.442;2022-12-19T05:50:49;8.52;;;5.65;;
56073;SDS011;41950;55.840;37.442;2022-12-19T05:53:18;8.65;;;5.80;;
56073;SDS011;41950;55.840;37.442;2022-12-19T05:55:44;8.65;;;6.07;;
56073;SDS011;41950;55.840;37.442;2022-12-19T05:58:09;8.32;;;5.45;;
56073;SDS011;41950;55.840;37.442;2022-12-19T06:00:35;8.25;;;5.22;;
56073;SDS011;41950;55.840;37.442;2022-12-19T06:03:01;9.70;;;6.30;;
56073;SDS011;41950;55.840;37.442;2022-12-19T06:05:27;8.23;;;4.90;;
56073;SDS011;41950;55.840;37.442;2022-12-19T06:07:52;8.85;;;5.15;;
56073;SDS011;41950;55.840;37.442;2022-12-19T06:10:18;7.68;;;4.05;;
56073;SDS011;41950;55.840;37.442;2022-12-19T06:12:44;6.90;;;3.72;;
56073;SDS011;41950;55.840;37.442;2022-12-19T06:15:10;10.15;;;5.38;;
56073;SDS011;41950;55.840;37.442;2022-12-19T06:17:36;6.72;;;4.38;;
56073;SDS011;41950;55.840;37.442;2022-12-19T06:20:03;8.73;;;5.03;;
56073;SDS011;41950;55.840;37.442;2022-12-19T06:22:29;8.80;;;4.82;;
56073;SDS011;41950;55.840;37.442;2022-12-19T06:24:54;6.78;;;3.83;;
56073;SDS011;41950;55.840;37.442;2022-12-19T06:27:23;7.40;;;4.22;;
56073;SDS011;41950;55.840;37.442;2022-12-19T06:29:48;6.30;;;3.85;;
56073;SDS011;41950;55.840;37.442;2022-12-19T06:32:14;8.52;;;4.50;;
56073;SDS011;41950;55.840;37.442;2022-12-19T06:34:39;3.42;;;2.10;;
56073;SDS011;41950;55.840;37.442;2022-12-19T06:37:05;14.18;;;5.57;;
56073;SDS011;41950;55.840;37.442;2022-12-19T06:39:31;7.30;;;4.90;;
56073;SDS011;41950;55.840;37.442;2022-12-19T06:41:56;7.70;;;4.60;;
56073;SDS011;41950;55.840;37.442;2022-12-19T06:44:40;9.70;;;5.57;;
56073;SDS011;41950;55.840;37.442;2022-12-19T06:47:07;9.20;;;5.35;;
56073;SDS011;41950;55.840;37.442;2022-12-19T06:49:33;9.10;;;5.05;;
56073;SDS011;41950;55.840;37.442;2022-12-19T06:51:58;9.80;;;5.40;;
56073;SDS011;41950;55.840;37.442;2022-12-19T06:54:24;10.20;;;6.15;;
56073;SDS011;41950;55.840;37.442;2022-12-19T06:57:01;9.32;;;4.80;;
56073;SDS011;41950;55.840;37.442;2022-12-19T06:59:26;6.15;;;3.38;;
56073;SDS011;41950;55.840;37.442;2022-12-19T07:02:08;9.35;;;4.22;;
56073;SDS011;41950;55.840;37.442;2022-12-19T07:07:16;6.20;;;3.85;;
56073;SDS011;41950;55.840;37.442;2022-12-19T07:09:42;7.93;;;4.53;;
56073;SDS011;41950;55.840;37.442;2022-12-19T07:12:08;6.65;;;3.25;;
56073;SDS011;41950;55.840;37.442;2022-12-19T07:14:33;4.22;;;2.72;;
56073;SDS011;41950;55.840;37.442;2022-12-19T07:16:59;11.20;;;6.07;;
56073;SDS011;41950;55.840;37.442;2022-12-19T07:19:27;4.20;;;2.70;;
56073;SDS011;41950;55.840;37.442;2022-12-19T07:21:54;9.20;;;5.40;;
56073;SDS011;41950;55.840;37.442;2022-12-19T07:24:27;4.13;;;2.45;;
56073;SDS011;41950;55.840;37.442;2022-12-19T07:26:59;7.60;;;4.55;;
56073;SDS011;41950;55.840;37.442;2022-12-19T07:29:24;8.68;;;5.72;;
56073;SDS011;41950;55.840;37.442;2022-12-19T07:31:53;11.23;;;5.38;;
56073;SDS011;41950;55.840;37.442;2022-12-19T07:34:36;8.40;;;5.10;;
56073;SDS011;41950;55.840;37.442;2022-12-19T07:37:01;5.78;;;3.75;;
56073;SDS011;41950;55.840;37.442;2022-12-19T07:39:27;10.98;;;5.60;;
56073;SDS011;41950;55.840;37.442;2022-12-19T07:41:53;7.82;;;5.35;;
56073;SDS011;41950;55.840;37.442;2022-12-19T07:44:18;9.38;;;5.70;;
56073;SDS011;41950;55.840;37.442;2022-12-19T07:46:44;8.23;;;5.13;;
56073;SDS011;41950;55.840;37.442;2022-12-19T07:49:09;9.27;;;5.65;;
56073;SDS011;41950;55.840;37.442;2022-12-19T07:51:35;9.98;;;6.03;;
56073;SDS011;41950;55.840;37.442;2022-12-19T07:54:04;10.18;;;4.63;;
56073;SDS011;41950;55.840;37.442;2022-12-19T07:56:30;7.60;;;3.90;;
56073;SDS011;41950;55.840;37.442;2022-12-19T07:58:55;6.55;;;4.40;;
56073;SDS011;41950;55.840;37.442;2022-12-19T08:01:21;9.13;;;5.47;;
56073;SDS011;41950;55.840;37.442;2022-12-19T08:03:46;6.60;;;3.60;;
56073;SDS011;41950;55.840;37.442;2022-12-19T08:06:15;8.35;;;4.63;;
56073;SDS011;41950;55.840;37.442;2022-12-19T08:08:41;8.27;;;5.32;;
56073;SDS011;41950;55.840;37.442;2022-12-19T08:11:07;9.02;;;5.70;;
56073;SDS011;41950;55.840;37.442;2022-12-19T08:13:44;7.18;;;4.80;;
56073;SDS011;41950;55.840;37.442;2022-12-19T08:16:12;9.45;;;5.82;;
56073;SDS011;41950;55.840;37.442;2022-12-19T08:18:38;8.43;;;5.10;;
56073;SDS011;41950;55.840;37.442;2022-12-19T08:21:05;9.05;;;6.05;;
56073;SDS011;41950;55.840;37.442;2022-12-19T08:23:32;9.43;;;5.95;;
56073;SDS011;41950;55.840;37.442;2022-12-19T08:25:58;8.57;;;5.55;;
56073;SDS011;41950;55.840;37.442;2022-12-19T08:28:29;9.13;;;5.78;;
56073;SDS011;41950;55.840;37.442;2022-12-19T08:30:56;9.63;;;5.68;;
56073;SDS011;41950;55.840;37.442;2022-12-19T08:33:22;9.38;;;5.63;;
56073;SDS011;41950;55.840;37.442;2022-12-19T08:35:48;9.30;;;4.95;;
56073;SDS011;41950;55.840;37.442;2022-12-19T08:38:14;8.60;;;5.18;;
56073;SDS011;41950;55.840;37.442;2022-12-19T08:40:39;8.93;;;4.90;;
56073;SDS011;41950;55.840;37.442;2022-12-19T08:43:05;6.97;;;3.78;;
56073;SDS011;41950;55.840;37.442;2022-12-19T08:45:30;9.38;;;5.90;;
56073;SDS011;41950;55.840;37.442;2022-12-19T08:47:56;9.98;;;5.90;;
56073;SDS011;41950;55.840;37.442;2022-12-19T08:50:22;9.38;;;5.85;;
56073;SDS011;41950;55.840;37.442;2022-12-19T08:52:47;9.90;;;5.78;;
56073;SDS011;41950;55.840;37.442;2022-12-19T08:55:13;9.38;;;5.57;;
56073;SDS011;41950;55.840;37.442;2022-12-19T08:57:39;8.77;;;5.65;;
56073;SDS011;41950;55.840;37.442;2022-12-19T09:00:05;10.57;;;5.78;;
56073;SDS011;41950;55.840;37.442;2022-12-19T09:02:32;7.93;;;4.45;;
56073;SDS011;41950;55.840;37.442;2022-12-19T09:04:58;9.10;;;5.90;;
56073;SDS011;41950;55.840;37.442;2022-12-19T09:07:23;10.15;;;6.28;;
56073;SDS011;41950;55.840;37.442;2022-12-19T09:09:49;11.40;;;5.70;;
56073;SDS011;41950;55.840;37.442;2022-12-19T09:12:15;7.15;;;4.78;;
56073;SDS011;41950;55.840;37.442;2022-12-19T09:14:41;7.88;;;5.10;;
56073;SDS011;41950;55.840;37.442;2022-12-19T09:17:08;9.88;;;6.40;;
56073;SDS011;41950;55.840;37.442;2022-12-19T09:19:34;7.80;;;5.10;;
56073;SDS011;41950;55.840;37.442;2022-12-19T09:21:59;12.02;;;6.15;;
56073;SDS011;41950;55.840;37.442;2022-12-19T09:24:25;6.72;;;3.80;;
56073;SDS011;41950;55.840;37.442;2022-12-19T09:26:51;8.93;;;4.45;;
56073;SDS011;41950;55.840;37.442;2022-12-19T09:29:17;8.95;;;5.43;;
56073;SDS011;41950;55.840;37.442;2022-12-19T09:31:42;8.80;;;6.03;;
56073;SDS011;41950;55.840;37.442;2022-12-19T09:34:08;9.88;;;6.18;;
56073;SDS011;41950;55.840;37.442;2022-12-19T09:36:34;8.38;;;5.45;;
56073;SDS011;41950;55.840;37.442;2022-12-19T09:38:59;10.23;;;6.32;;
56073;SDS011;41950;55.840;37.442;2022-12-19T09:49:42;8.88;;;5.40;;
56073;SDS011;41950;55.840;37.442;2022-12-19T09:52:14;8.30;;;5.25;;
56073;SDS011;41950;55.840;37.442;2022-12-19T09:55:04;8.30;;;5.50;;
56073;SDS011;41950;55.840;37.442;2022-12-19T10:00:32;3.30;;;2.00;;
56073;SDS011;41950;55.840;37.442;2022-12-19T10:03:07;8.40;;;6.03;;
56073;SDS011;41950;55.840;37.442;2022-12-19T10:05:54;10.07;;;6.47;;
56073;SDS011;41950;55.840;37.442;2022-12-19T10:08:27;8.77;;;4.57;;
56073;SDS011;41950;55.840;37.442;2022-12-19T10:13:31;6.20;;;3.78;;
56073;SDS011;41950;55.840;37.442;2022-12-19T10:24:49;13.50;;;6.97;;
56073;SDS011;41950;55.840;37.442;2022-12-19T10:27:34;12.93;;;8.05;;
56073;SDS011;41950;55.840;37.442;2022-12-19T10:30:09;10.05;;;6.80;;
56073;SDS011;41950;55.840;37.442;2022-12-19T10:33:25;9.48;;;6.28;;
56073;SDS011;41950;55.840;37.442;2022-12-19T10:35:36;9.65;;;6.18;;
56073;SDS011;41950;55.840;37.442;2022-12-19T10:40:41;9.48;;;6.22;;
56073;SDS011;41950;55.840;37.442;2022-12-19T10:45:56;10.38;;;6.53;;
56073;SDS011;41950;55.840;37.442;2022-12-19T10:48:26;6.80;;;4.30;;
56073;SDS011;41950;55.840;37.442;2022-12-19T10:50:52;9.55;;;6.22;;
56073;SDS011;41950;55.840;37.442;2022-12-19T10:53:24;9.50;;;6.22;;
56073;SDS011;41950;55.840;37.442;2022-12-19T10:55:53;10.02;;;6.03;;
56073;SDS011;41950;55.840;37.442;2022-12-19T10:58:25;9.88;;;6.65;;
56073;SDS011;41950;55.840;37.442;2022-12-19T11:01:03;9.43;;;6.45;;
56073;SDS011;41950;55.840;37.442;2022-12-19T11:03:35;9.07;;;6.50;;
56073;SDS011;41950;55.840;37.442;2022-12-19T11:06:02;9.57;;;6.55;;
56073;SDS011;41950;55.840;37.442;2022-12-19T11:08:30;8.38;;;5.70;;
56073;SDS011;41950;55.840;37.442;2022-12-19T11:13:42;8.20;;;5.40;;
56073;SDS011;41950;55.840;37.442;2022-12-19T11:16:09;11.45;;;6.57;;
56073;SDS011;41950;55.840;37.442;2022-12-19T11:24:11;10.25;;;7.07;;
56073;SDS011;41950;55.840;37.442;2022-12-19T11:27:01;10.82;;;6.65;;
56073;SDS011;41950;55.840;37.442;2022-12-19T11:34:59;10.68;;;6.80;;
56073;SDS011;41950;55.840;37.442;2022-12-19T11:37:38;7.65;;;4.53;;
56073;SDS011;41950;55.840;37.442;2022-12-19T11:43:04;12.77;;;7.63;;
56073;SDS011;41950;55.840;37.442;2022-12-19T11:46:16;10.07;;;7.60;;
56073;SDS011;41950;55.840;37.442;2022-12-19T11:48:40;10.38;;;6.65;;
56073;SDS011;41950;55.840;37.442;2022-12-19T11:53:46;12.15;;;7.45;;
56073;SDS011;41950;55.840;37.442;2022-12-19T11:56:21;10.35;;;7.00;;
56073;SDS011;41950;55.840;37.442;2022-12-19T11:58:51;11.10;;;7.18;;
56073;SDS011;41950;55.840;37.442;2022-12-19T12:01:37;11.50;;;7.97;;
56073;SDS011;41950;55.840;37.442;2022-12-19T12:04:28;12.88;;;9.23;;
56073;SDS011;41950;55.840;37.442;2022-12-19T12:06:56;14.65;;;10.18;;
56073;SDS011;41950;55.840;37.442;2022-12-19T12:19:59;14.13;;;8.85;;
56073;SDS011;41950;55.840;37.442;2022-12-19T12:25:22;12.35;;;7.78;;
56073;SDS011;41950;55.840;37.442;2022-12-19T12:30:43;12.38;;;6.40;;
56073;SDS011;41950;55.840;37.442;2022-12-19T12:36:26;13.13;;;7.93;;
56073;SDS011;41950;55.840;37.442;2022-12-19T12:39:03;11.40;;;7.50;;
56073;SDS011;41950;55.840;37.442;2022-12-19T12:44:37;9.43;;;5.78;;
56073;SDS011;41950;55.840;37.442;2022-12-19T12:47:08;11.38;;;7.45;;
56073;SDS011;41950;55.840;37.442;2022-12-19T12:49:39;11.35;;;8.02;;
56073;SDS011;41950;55.840;37.442;2022-12-19T12:52:17;12.77;;;7.75;;
56073;SDS011;41950;55.840;37.442;2022-12-19T12:54:51;9.23;;;6.85;;
56073;SDS011;41950;55.840;37.442;2022-12-19T13:00:51;10.25;;;6.25;;
56073;SDS011;41950;55.840;37.442;2022-12-19T13:02:51;8.40;;;5.15;;
56073;SDS011;41950;55.840;37.442;2022-12-19T13:10:54;10.57;;;6.82;;
56073;SDS011;41950;55.840;37.442;2022-12-19T13:13:46;10.55;;;6.20;;
56073;SDS011;41950;55.840;37.442;2022-12-19T13:19:19;10.13;;;7.25;;
56073;SDS011;41950;55.840;37.442;2022-12-19T13:24:38;9.80;;;7.57;;
56073;SDS011;41950;55.840;37.442;2022-12-19T13:27:48;12.20;;;7.95;;
56073;SDS011;41950;55.840;37.442;2022-12-19T13:35:48;9.88;;;7.00;;
56073;SDS011;41950;55.840;37.442;2022-12-19T13:37:50;9.38;;;5.50;;
56073;SDS011;41950;55.840;37.442;2022-12-19T13:40:33;10.63;;;6.75;;
56073;SDS011;41950;55.840;37.442;2022-12-19T13:43:29;11.88;;;7.82;;
56073;SDS011;41950;55.840;37.442;2022-12-19T13:46:25;11.00;;;6.43;;
56073;SDS011;41950;55.840;37.442;2022-12-19T13:49:28;8.13;;;4.97;;
56073;SDS011;41950;55.840;37.442;2022-12-19T13:51:52;11.02;;;6.53;;
56073;SDS011;41950;55.840;37.442;2022-12-19T13:54:22;7.88;;;4.65;;
56073;SDS011;41950;55.840;37.442;2022-12-19T13:56:50;11.55;;;7.85;;
56073;SDS011;41950;55.840;37.442;2022-12-19T13:59:18;9.40;;;6.68;;
56073;SDS011;41950;55.840;37.442;2022-12-19T14:01:50;9.30;;;6.72;;
56073;SDS011;41950;55.840;37.442;2022-12-19T14:04:30;12.30;;;7.95;;
56073;SDS011;41950;55.840;37.442;2022-12-19T14:07:39;14.43;;;9.02;;
56073;SDS011;41950;55.840;37.442;2022-12-19T14:09:49;12.27;;;9.10;;
56073;SDS011;41950;55.840;37.442;2022-12-19T14:12:50;11.93;;;7.90;;
56073;SDS011;41950;55.840;37.442;2022-12-19T14:15:49;9.93;;;7.47;;
56073;SDS011;41950;55.840;37.442;2022-12-19T14:18:21;9.23;;;6.35;;
56073;SDS011;41950;55.840;37.442;2022-12-19T14:23:41;10.18;;;7.55;;
56073;SDS011;41950;55.840;37.442;2022-12-19T14:26:09;11.65;;;7.72;;
56073;SDS011;41950;55.840;37.442;2022-12-19T14:29:05;8.70;;;6.20;;
56073;SDS011;41950;55.840;37.442;2022-12-19T14:31:37;11.00;;;7.38;;
56073;SDS011;41950;55.840;37.442;2022-12-19T14:34:05;10.60;;;7.30;;
56073;SDS011;41950;55.840;37.442;2022-12-19T14:36:41;10.50;;;8.23;;
56073;SDS011;41950;55.840;37.442;2022-12-19T14:41:44;10.57;;;6.63;;
56073;SDS011;41950;55.840;37.442;2022-12-19T14:44:43;12.45;;;8.43;;
56073;SDS011;41950;55.840;37.442;2022-12-19T14:47:20;9.90;;;7.03;;
56073;SDS011;41950;55.840;37.442;2022-12-19T14:49:48;14.60;;;8.23;;
56073;SDS011;41950;55.840;37.442;2022-12-19T14:55:12;10.52;;;6.80;;
56073;SDS011;41950;55.840;37.442;2022-12-19T14:57:56;11.98;;;8.30;;
56073;SDS011;41950;55.840;37.442;2022-12-19T15:00:24;11.43;;;7.97;;
56073;SDS011;41950;55.840;37.442;2022-12-19T15:02:51;10.35;;;5.70;;
56073;SDS011;41950;55.840;37.442;2022-12-19T15:05:17;9.95;;;7.22;;
56073;SDS011;41950;55.840;37.442;2022-12-19T15:07:48;10.90;;;6.20;;
56073;SDS011;41950;55.840;37.442;2022-12-19T15:10:17;11.70;;;7.97;;
56073;SDS011;41950;55.840;37.442;2022-12-19T15:15:43;11.00;;;8.10;;
56073;SDS011;41950;55.840;37.442;2022-12-19T15:20:49;11.38;;;7.70;;
56073;SDS011;41950;55.840;37.442;2022-12-19T15:23:16;11.48;;;7.35;;
56073;SDS011;41950;55.840;37.442;2022-12-19T15:25:43;6.82;;;3.70;;
56073;SDS011;41950;55.840;37.442;2022-12-19T15:28:19;10.85;;;7.72;;
56073;SDS011;41950;55.840;37.442;2022-12-19T15:31:08;10.48;;;7.50;;
56073;SDS011;41950;55.840;37.442;2022-12-19T15:33:45;11.52;;;7.88;;
56073;SDS011;41950;55.840;37.442;2022-12-19T15:36:11;12.45;;;7.75;;
56073;SDS011;41950;55.840;37.442;2022-12-19T15:38:37;11.93;;;8.27;;
56073;SDS011;41950;55.840;37.442;2022-12-19T15:41:02;14.25;;;6.93;;
56073;SDS011;41950;55.840;37.442;2022-12-19T15:43:28;11.75;;;7.80;;
56073;SDS011;41950;55.840;37.442;2022-12-19T15:45:57;15.10;;;8.60;;
56073;SDS011;41950;55.840;37.442;2022-12-19T15:48:24;13.13;;;8.23;;
56073;SDS011;41950;55.840;37.442;2022-12-19T15:50:50;13.98;;;8.32;;
56073;SDS011;41950;55.840;37.442;2022-12-19T15:53:18;13.15;;;8.05;;
56073;SDS011;41950;55.840;37.442;2022-12-19T15:55:51;14.95;;;8.38;;
56073;SDS011;41950;55.840;37.442;2022-12-19T15:58:19;14.27;;;9.10;;
56073;SDS011;41950;55.840;37.442;2022-12-19T16:00:48;14.13;;;8.95;;
56073;SDS011;41950;55.840;37.442;2022-12-19T16:03:17;13.23;;;8.32;;
56073;SDS011;41950;55.840;37.442;2022-12-19T16:05:42;14.25;;;8.95;;
56073;SDS011;41950;55.840;37.442;2022-12-19T16:08:13;11.00;;;7.88;;
56073;SDS011;41950;55.840;37.442;2022-12-19T16:10:41;11.38;;;6.22;;
56073;SDS011;41950;55.840;37.442;2022-12-19T16:13:19;11.65;;;7.65;;
56073;SDS011;41950;55.840;37.442;2022-12-19T16:15:50;11.27;;;8.18;;
56073;SDS011;41950;55.840;37.442;2022-12-19T16:18:18;11.27;;;7.13;;
56073;SDS011;41950;55.840;37.442;2022-12-19T16:20:44;13.15;;;8.02;;
56073;SDS011;41950;55.840;37.442;2022-12-19T16:23:11;12.52;;;8.40;;
56073;SDS011;41950;55.840;37.442;2022-12-19T16:28:05;12.20;;;8.15;;
56073;SDS011;41950;55.840;37.442;2022-12-19T16:30:36;13.85;;;8.40;;
56073;SDS011;41950;55.840;37.442;2022-12-19T16:33:04;9.93;;;7.38;;
56073;SDS011;41950;55.840;37.442;2022-12-19T16:35:40;10.82;;;7.18;;
56073;SDS011;41950;55.840;37.442;2022-12-19T16:38:08;12.32;;;7.70;;
56073;SDS011;41950;55.840;37.442;2022-12-19T16:40:33;11.02;;;7.50;;
56073;SDS011;41950;55.840;37.442;2022-12-19T16:43:03;8.65;;;5.20;;
56073;SDS011;41950;55.840;37.442;2022-12-19T16:45:31;12.35;;;7.63;;
56073;SDS011;41950;55.840;37.442;2022-12-19T16:47:58;10.02;;;6.70;;
56073;SDS011;41950;55.840;37.442;2022-12-19T16:50:28;10.10;;;7.43;;
56073;SDS011;41950;55.840;37.442;2022-12-19T16:52:55;10.70;;;6.88;;
56073;SDS011;41950;55.840;37.442;2022-12-19T16:55:30;10.90;;;7.07;;
56073;SDS011;41950;55.840;37.442;2022-12-19T16:57:56;10.32;;;6.78;;
56073;SDS011;41950;55.840;37.442;2022-12-19T17:00:22;10.48;;;6.65;;
56073;SDS011;41950;55.840;37.442;2022-12-19T17:05:16;10.18;;;6.78;;
56073;SDS011;41950;55.840;37.442;2022-12-19T17:07:51;10.73;;;7.43;;
56073;SDS011;41950;55.840;37.442;2022-12-19T17:10:18;11.80;;;7.40;;
56073;SDS011;41950;55.840;37.442;2022-12-19T17:12:49;10.60;;;7.07;;
56073;SDS011;41950;55.840;37.442;2022-12-19T17:15:17;9.20;;;5.88;;
56073;SDS011;41950;55.840;37.442;2022-12-19T17:17:43;10.70;;;7.10;;
56073;SDS011;41950;55.840;37.442;2022-12-19T17:20:17;10.57;;;6.63;;
56073;SDS011;41950;55.840;37.442;2022-12-19T17:22:49;10.30;;;6.47;;
56073;SDS011;41950;55.840;37.442;2022-12-19T17:25:17;10.90;;;6.68;;
56073;SDS011;41950;55.840;37.442;2022-12-19T17:27:45;10.02;;;6.22;;
56073;SDS011;41950;55.840;37.442;2022-12-19T17:30:11;11.68;;;7.03;;
56073;SDS011;41950;55.840;37.442;2022-12-19T17:32:37;9.45;;;6.10;;
56073;SDS011;41950;55.840;37.442;2022-12-19T17:35:03;6.38;;;3.33;;
56073;SDS011;41950;55.840;37.442;2022-12-19T17:37:29;8.43;;;4.97;;
56073;SDS011;41950;55.840;37.442;2022-12-19T17:39:55;11.15;;;6.22;;
56073;SDS011;41950;55.840;37.442;2022-12-19T17:42:21;11.32;;;6.68;;